sensor_id;sensor_type;location;lat;lon;timestamp;P1;durP1;ratioP1;P2;durP2;ratioP2
7158;SDS011;63175;52.374;13.132;2023-04-05T00:02:25;2.27;;;2.07;;
7158;SDS011;63175;52.374;13.132;2023-04-05T00:04:53;7.77;;;2.50;;
7158;SDS011;63175;52.374;13.132;2023-04-05T00:07:22;7.87;;;2.40;;
7158;SDS011;63175;52.374;13.132;2023-04-05T00:09:50;3.23;;;2.43;;
7158;SDS011;63175;52.374;13.132;2023-04-05T00:12:17;3.07;;;1.70;;
7158;SDS011;63175;52.374;13.132;2023-04-05T00:14:44;2.10;;;2.00;;
7158;SDS011;63175;52.374;13.132;2023-04-05T00:17:11;4.23;;;2.63;;
7158;SDS011;63175;52.374;13.132;2023-04-05T00:19:38;3.70;;;2.23;;
7158;SDS011;63175;52.374;13.132;2023-04-05T00:22:05;3.63;;;1.90;;
7158;SDS011;63175;52.374;13.132;2023-04-05T00:24:36;3.33;;;2.30;;
7158;SDS011;63175;52.374;13.132;2023-04-05T00:27:07;3.47;;;2.00;;
7158;SDS011;63175;52.374;13.132;2023-04-05T00:29:34;3.40;;;2.30;;
7158;SDS011;63175;52.374;13.132;2023-04-05T00:32:01;5.03;;;2.17;;
7158;SDS011;63175;52.374;13.132;2023-04-05T00:34:28;4.30;;;1.90;;
7158;SDS011;63175;52.374;13.132;2023-04-05T00:36:56;2.87;;;1.90;;
7158;SDS011;63175;52.374;13.132;2023-04-05T00:39:23;2.10;;;1.87;;
7158;SDS011;63175;52.374;13.132;2023-04-05T00:41:52;3.80;;;2.50;;
7158;SDS011;63175;52.374;13.132;2023-04-05T00:44:18;3.17;;;2.17;;
7158;SDS011;63175;52.374;13.132;2023-04-05T00:46:45;2.80;;;2.60;;
7158;SDS011;63175;52.374;13.132;2023-04-05T00:49:12;3.00;;;2.50;;
7158;SDS011;63175;52.374;13.132;2023-04-05T00:51:39;2.47;;;1.80;;
7158;SDS011;63175;52.374;13.132;2023-04-05T00:54:07;2.63;;;2.43;;
7158;SDS011;63175;52.374;13.132;2023-04-05T00:56:35;7.83;;;2.70;;
7158;SDS011;63175;52.374;13.132;2023-04-05T00:59:05;7.20;;;2.43;;
7158;SDS011;63175;52.374;13.132;2023-04-05T01:01:32;3.63;;;2.57;;
7158;SDS011;63175;52.374;13.132;2023-04-05T01:04:02;2.00;;;1.90;;
7158;SDS011;63175;52.374;13.132;2023-04-05T01:06:46;2.50;;;2.30;;
7158;SDS011;63175;52.374;13.132;2023-04-05T01:09:26;3.20;;;2.30;;
7158;SDS011;63175;52.374;13.132;2023-04-05T01:12:02;1.90;;;1.80;;
7158;SDS011;63175;52.374;13.132;2023-04-05T01:14:32;4.23;;;2.10;;
7158;SDS011;63175;52.374;13.132;2023-04-05T01:17:09;2.47;;;2.27;;
7158;SDS011;63175;52.374;13.132;2023-04-05T01:19:36;3.97;;;2.03;;
7158;SDS011;63175;52.374;13.132;2023-04-05T01:25:21;3.80;;;2.60;;
7158;SDS011;63175;52.374;13.132;2023-04-05T01:28:12;6.10;;;3.10;;
7158;SDS011;63175;52.374;13.132;2023-04-05T01:30:53;7.07;;;2.77;;
7158;SDS011;63175;52.374;13.132;2023-04-05T01:33:29;6.70;;;2.80;;
7158;SDS011;63175;52.374;13.132;2023-04-05T01:36:02;2.73;;;2.53;;
7158;SDS011;63175;52.374;13.132;2023-04-05T01:38:33;4.20;;;2.50;;
7158;SDS011;63175;52.374;13.132;2023-04-05T01:41:03;4.07;;;2.20;;
7158;SDS011;63175;52.374;13.132;2023-04-05T01:43:31;2.30;;;2.20;;
7158;SDS011;63175;52.374;13.132;2023-04-05T01:45:59;3.27;;;2.97;;
7158;SDS011;63175;52.374;13.132;2023-04-05T01:48:26;2.60;;;2.30;;
7158;SDS011;63175;52.374;13.132;2023-04-05T01:50:52;3.73;;;2.10;;
7158;SDS011;63175;52.374;13.132;2023-04-05T01:53:19;2.07;;;1.90;;
7158;SDS011;63175;52.374;13.132;2023-04-05T01:55:46;4.47;;;2.70;;
7158;SDS011;63175;52.374;13.132;2023-04-05T01:58:13;5.83;;;2.30;;
7158;SDS011;63175;52.374;13.132;2023-04-05T02:00:40;4.17;;;2.83;;
7158;SDS011;63175;52.374;13.132;2023-04-05T02:03:08;5.37;;;2.40;;
7158;SDS011;63175;52.374;13.132;2023-04-05T02:05:35;4.80;;;2.47;;
7158;SDS011;63175;52.374;13.132;2023-04-05T02:08:02;6.83;;;3.03;;
7158;SDS011;63175;52.374;13.132;2023-04-05T02:10:28;3.40;;;3.00;;
7158;SDS011;63175;52.374;13.132;2023-04-05T02:12:55;4.63;;;2.67;;
7158;SDS011;63175;52.374;13.132;2023-04-05T02:15:22;3.33;;;2.40;;
7158;SDS011;63175;52.374;13.132;2023-04-05T02:17:49;2.07;;;1.87;;
7158;SDS011;63175;52.374;13.132;2023-04-05T02:20:19;6.50;;;2.53;;
7158;SDS011;63175;52.374;13.132;2023-04-05T02:22:46;4.30;;;2.17;;
7158;SDS011;63175;52.374;13.132;2023-04-05T02:25:13;3.40;;;2.90;;
7158;SDS011;63175;52.374;13.132;2023-04-05T02:27:39;4.30;;;2.30;;
7158;SDS011;63175;52.374;13.132;2023-04-05T02:30:07;2.70;;;2.50;;
7158;SDS011;63175;52.374;13.132;2023-04-05T02:32:34;3.40;;;2.60;;
7158;SDS011;63175;52.374;13.132;2023-04-05T02:35:01;3.43;;;2.53;;
7158;SDS011;63175;52.374;13.132;2023-04-05T02:37:29;3.63;;;3.00;;
7158;SDS011;63175;52.374;13.132;2023-04-05T02:39:56;3.50;;;2.43;;
7158;SDS011;63175;52.374;13.132;2023-04-05T02:42:23;4.07;;;3.20;;
7158;SDS011;63175;52.374;13.132;2023-04-05T02:44:50;3.13;;;2.83;;
7158;SDS011;63175;52.374;13.132;2023-04-05T02:47:17;2.80;;;2.50;;
7158;SDS011;63175;52.374;13.132;2023-04-05T02:49:45;3.10;;;2.57;;
7158;SDS011;63175;52.374;13.132;2023-04-05T02:52:13;3.83;;;2.20;;
7158;SDS011;63175;52.374;13.132;2023-04-05T02:54:41;4.60;;;4.20;;
7158;SDS011;63175;52.374;13.132;2023-04-05T02:57:08;19.63;;;10.50;;
7158;SDS011;63175;52.374;13.132;2023-04-05T02:59:35;9.67;;;5.87;;
7158;SDS011;63175;52.374;13.132;2023-04-05T03:02:03;9.20;;;4.60;;
7158;SDS011;63175;52.374;13.132;2023-04-05T03:04:30;4.80;;;3.57;;
7158;SDS011;63175;52.374;13.132;2023-04-05T03:06:58;4.00;;;3.17;;
7158;SDS011;63175;52.374;13.132;2023-04-05T03:09:26;7.03;;;3.70;;
7158;SDS011;63175;52.374;13.132;2023-04-05T03:11:58;4.30;;;3.10;;
7158;SDS011;63175;52.374;13.132;2023-04-05T03:14:25;3.00;;;2.57;;
7158;SDS011;63175;52.374;13.132;2023-04-05T03:16:52;5.53;;;2.63;;
7158;SDS011;63175;52.374;13.132;2023-04-05T03:19:19;4.27;;;3.20;;
7158;SDS011;63175;52.374;13.132;2023-04-05T03:21:46;3.17;;;2.80;;
7158;SDS011;63175;52.374;13.132;2023-04-05T03:24:13;3.30;;;2.77;;
7158;SDS011;63175;52.374;13.132;2023-04-05T03:26:42;2.80;;;2.50;;
7158;SDS011;63175;52.374;13.132;2023-04-05T03:29:11;4.13;;;2.63;;
7158;SDS011;63175;52.374;13.132;2023-04-05T03:31:38;8.57;;;2.83;;
7158;SDS011;63175;52.374;13.132;2023-04-05T03:34:05;4.90;;;2.80;;
7158;SDS011;63175;52.374;13.132;2023-04-05T03:36:32;3.53;;;2.80;;
7158;SDS011;63175;52.374;13.132;2023-04-05T03:39:05;5.03;;;2.83;;
7158;SDS011;63175;52.374;13.132;2023-04-05T03:41:33;5.83;;;2.70;;
7158;SDS011;63175;52.374;13.132;2023-04-05T03:44:00;4.80;;;2.27;;
7158;SDS011;63175;52.374;13.132;2023-04-05T03:46:28;4.17;;;2.60;;
7158;SDS011;63175;52.374;13.132;2023-04-05T03:48:55;4.67;;;2.53;;
7158;SDS011;63175;52.374;13.132;2023-04-05T03:51:22;8.43;;;2.70;;
7158;SDS011;63175;52.374;13.132;2023-04-05T03:53:49;2.60;;;2.40;;
7158;SDS011;63175;52.374;13.132;2023-04-05T03:56:17;4.60;;;2.67;;
7158;SDS011;63175;52.374;13.132;2023-04-05T03:58:44;6.20;;;2.47;;
7158;SDS011;63175;52.374;13.132;2023-04-05T04:01:11;2.97;;;2.67;;
7158;SDS011;63175;52.374;13.132;2023-04-05T04:03:39;4.77;;;2.37;;
7158;SDS011;63175;52.374;13.132;2023-04-05T04:06:06;2.20;;;2.07;;
7158;SDS011;63175;52.374;13.132;2023-04-05T04:08:33;5.27;;;2.27;;
7158;SDS011;63175;52.374;13.132;2023-04-05T04:11:00;2.50;;;2.30;;
7158;SDS011;63175;52.374;13.132;2023-04-05T04:13:27;7.63;;;2.50;;
7158;SDS011;63175;52.374;13.132;2023-04-05T04:15:53;2.57;;;2.37;;
7158;SDS011;63175;52.374;13.132;2023-04-05T04:18:20;2.07;;;1.77;;
7158;SDS011;63175;52.374;13.132;2023-04-05T04:20:48;4.37;;;2.10;;
7158;SDS011;63175;52.374;13.132;2023-04-05T04:23:16;5.00;;;2.57;;
7158;SDS011;63175;52.374;13.132;2023-04-05T04:25:43;5.07;;;2.30;;
7158;SDS011;63175;52.374;13.132;2023-04-05T04:28:11;3.23;;;2.30;;
7158;SDS011;63175;52.374;13.132;2023-04-05T04:30:41;2.10;;;1.77;;
7158;SDS011;63175;52.374;13.132;2023-04-05T04:33:08;2.90;;;2.20;;
7158;SDS011;63175;52.374;13.132;2023-04-05T04:35:35;2.30;;;1.50;;
7158;SDS011;63175;52.374;13.132;2023-04-05T04:38:04;2.90;;;2.53;;
7158;SDS011;63175;52.374;13.132;2023-04-05T04:40:32;1.90;;;1.67;;
7158;SDS011;63175;52.374;13.132;2023-04-05T04:43:03;2.50;;;1.60;;
7158;SDS011;63175;52.374;13.132;2023-04-05T04:45:29;1.93;;;1.73;;
7158;SDS011;63175;52.374;13.132;2023-04-05T04:47:58;3.00;;;2.17;;
7158;SDS011;63175;52.374;13.132;2023-04-05T04:50:29;1.83;;;1.70;;
7158;SDS011;63175;52.374;13.132;2023-04-05T04:52:57;2.43;;;2.17;;
7158;SDS011;63175;52.374;13.132;2023-04-05T04:55:25;2.70;;;1.77;;
7158;SDS011;63175;52.374;13.132;2023-04-05T04:57:52;2.23;;;1.67;;
7158;SDS011;63175;52.374;13.132;2023-04-05T05:00:20;1.50;;;1.37;;
7158;SDS011;63175;52.374;13.132;2023-04-05T05:02:48;4.10;;;2.50;;
7158;SDS011;63175;52.374;13.132;2023-04-05T05:05:16;2.50;;;2.20;;
7158;SDS011;63175;52.374;13.132;2023-04-05T05:07:46;4.87;;;2.30;;
7158;SDS011;63175;52.374;13.132;2023-04-05T05:10:14;2.77;;;2.27;;
7158;SDS011;63175;52.374;13.132;2023-04-05T05:12:42;3.17;;;2.67;;
7158;SDS011;63175;52.374;13.132;2023-04-05T05:15:09;4.20;;;1.97;;
7158;SDS011;63175;52.374;13.132;2023-04-05T05:17:37;5.17;;;1.93;;
7158;SDS011;63175;52.374;13.132;2023-04-05T05:20:05;3.03;;;1.83;;
7158;SDS011;63175;52.374;13.132;2023-04-05T05:22:34;2.70;;;1.90;;
7158;SDS011;63175;52.374;13.132;2023-04-05T05:25:00;2.90;;;2.03;;
7158;SDS011;63175;52.374;13.132;2023-04-05T05:27:27;2.30;;;1.80;;
7158;SDS011;63175;52.374;13.132;2023-04-05T05:29:55;1.50;;;1.40;;
7158;SDS011;63175;52.374;13.132;2023-04-05T05:32:22;2.80;;;1.90;;
7158;SDS011;63175;52.374;13.132;2023-04-05T05:34:49;2.60;;;2.40;;
7158;SDS011;63175;52.374;13.132;2023-04-05T05:37:16;2.83;;;2.57;;
7158;SDS011;63175;52.374;13.132;2023-04-05T05:39:43;3.77;;;3.10;;
7158;SDS011;63175;52.374;13.132;2023-04-05T05:42:10;4.43;;;3.27;;
7158;SDS011;63175;52.374;13.132;2023-04-05T05:44:37;3.93;;;3.00;;
7158;SDS011;63175;52.374;13.132;2023-04-05T05:47:05;3.97;;;2.53;;
7158;SDS011;63175;52.374;13.132;2023-04-05T05:49:32;4.37;;;2.40;;
7158;SDS011;63175;52.374;13.132;2023-04-05T05:51:59;2.97;;;2.77;;
7158;SDS011;63175;52.374;13.132;2023-04-05T05:54:25;2.20;;;2.00;;
7158;SDS011;63175;52.374;13.132;2023-04-05T05:56:52;2.57;;;2.37;;
7158;SDS011;63175;52.374;13.132;2023-04-05T05:59:19;3.07;;;2.33;;
7158;SDS011;63175;52.374;13.132;2023-04-05T06:01:46;2.83;;;2.53;;
7158;SDS011;63175;52.374;13.132;2023-04-05T06:04:16;2.43;;;1.70;;
7158;SDS011;63175;52.374;13.132;2023-04-05T06:06:44;3.00;;;2.80;;
7158;SDS011;63175;52.374;13.132;2023-04-05T06:09:12;2.97;;;1.93;;
7158;SDS011;63175;52.374;13.132;2023-04-05T06:11:39;2.53;;;2.30;;
7158;SDS011;63175;52.374;13.132;2023-04-05T06:14:06;2.43;;;2.20;;
7158;SDS011;63175;52.374;13.132;2023-04-05T06:16:33;2.63;;;2.27;;
7158;SDS011;63175;52.374;13.132;2023-04-05T06:19:00;3.20;;;2.57;;
7158;SDS011;63175;52.374;13.132;2023-04-05T06:21:28;10.43;;;2.30;;
7158;SDS011;63175;52.374;13.132;2023-04-05T06:23:56;2.97;;;2.77;;
7158;SDS011;63175;52.374;13.132;2023-04-05T06:26:23;4.80;;;3.33;;
7158;SDS011;63175;52.374;13.132;2023-04-05T06:28:52;4.13;;;2.37;;
7158;SDS011;63175;52.374;13.132;2023-04-05T06:31:24;2.67;;;2.17;;
7158;SDS011;63175;52.374;13.132;2023-04-05T06:33:52;6.57;;;2.93;;
7158;SDS011;63175;52.374;13.132;2023-04-05T06:36:18;2.60;;;2.17;;
7158;SDS011;63175;52.374;13.132;2023-04-05T06:38:47;3.10;;;2.57;;
7158;SDS011;63175;52.374;13.132;2023-04-05T06:41:13;4.27;;;2.90;;
7158;SDS011;63175;52.374;13.132;2023-04-05T06:43:40;2.87;;;2.43;;
7158;SDS011;63175;52.374;13.132;2023-04-05T06:46:07;4.30;;;3.17;;
7158;SDS011;63175;52.374;13.132;2023-04-05T06:48:36;4.60;;;2.30;;
7158;SDS011;63175;52.374;13.132;2023-04-05T06:51:03;3.43;;;2.50;;
7158;SDS011;63175;52.374;13.132;2023-04-05T06:53:30;2.67;;;2.07;;
7158;SDS011;63175;52.374;13.132;2023-04-05T06:55:59;3.20;;;2.40;;
7158;SDS011;63175;52.374;13.132;2023-04-05T06:58:26;3.63;;;2.03;;
7158;SDS011;63175;52.374;13.132;2023-04-05T07:00:53;2.60;;;2.30;;
7158;SDS011;63175;52.374;13.132;2023-04-05T07:03:20;4.83;;;2.03;;
7158;SDS011;63175;52.374;13.132;2023-04-05T07:05:50;2.63;;;2.10;;
7158;SDS011;63175;52.374;13.132;2023-04-05T07:08:18;5.07;;;2.13;;
7158;SDS011;63175;52.374;13.132;2023-04-05T07:10:46;5.80;;;2.47;;
7158;SDS011;63175;52.374;13.132;2023-04-05T07:13:14;4.13;;;2.50;;
7158;SDS011;63175;52.374;13.132;2023-04-05T07:15:42;3.43;;;2.40;;
7158;SDS011;63175;52.374;13.132;2023-04-05T07:18:09;1.93;;;1.53;;
7158;SDS011;63175;52.374;13.132;2023-04-05T07:20:35;1.60;;;1.50;;
7158;SDS011;63175;52.374;13.132;2023-04-05T07:23:03;1.90;;;1.70;;
7158;SDS011;63175;52.374;13.132;2023-04-05T07:25:31;2.40;;;1.90;;
7158;SDS011;63175;52.374;13.132;2023-04-05T07:27:58;2.30;;;1.90;;
7158;SDS011;63175;52.374;13.132;2023-04-05T07:30:26;2.43;;;1.60;;
7158;SDS011;63175;52.374;13.132;2023-04-05T07:32:54;2.97;;;2.13;;
7158;SDS011;63175;52.374;13.132;2023-04-05T07:35:20;2.80;;;2.30;;
7158;SDS011;63175;52.374;13.132;2023-04-05T07:37:47;4.07;;;3.33;;
7158;SDS011;63175;52.374;13.132;2023-04-05T07:40:14;5.03;;;3.20;;
7158;SDS011;63175;52.374;13.132;2023-04-05T07:42:41;4.40;;;2.40;;
7158;SDS011;63175;52.374;13.132;2023-04-05T07:45:08;3.20;;;2.90;;
7158;SDS011;63175;52.374;13.132;2023-04-05T07:47:37;4.37;;;2.90;;
7158;SDS011;63175;52.374;13.132;2023-04-05T07:50:04;6.70;;;3.00;;
7158;SDS011;63175;52.374;13.132;2023-04-05T07:52:33;6.57;;;3.30;;
7158;SDS011;63175;52.374;13.132;2023-04-05T07:55:00;3.67;;;2.97;;
7158;SDS011;63175;52.374;13.132;2023-04-05T07:57:27;2.90;;;2.70;;
7158;SDS011;63175;52.374;13.132;2023-04-05T07:59:54;2.63;;;2.43;;
7158;SDS011;63175;52.374;13.132;2023-04-05T08:02:21;4.10;;;3.07;;
7158;SDS011;63175;52.374;13.132;2023-04-05T08:04:49;4.60;;;3.43;;
7158;SDS011;63175;52.374;13.132;2023-04-05T08:07:16;6.17;;;4.10;;
7158;SDS011;63175;52.374;13.132;2023-04-05T08:09:43;4.93;;;3.90;;
7158;SDS011;63175;52.374;13.132;2023-04-05T08:12:10;3.90;;;3.60;;
7158;SDS011;63175;52.374;13.132;2023-04-05T08:14:37;4.50;;;2.97;;
7158;SDS011;63175;52.374;13.132;2023-04-05T08:17:03;4.23;;;3.83;;
7158;SDS011;63175;52.374;13.132;2023-04-05T08:19:30;4.07;;;3.43;;
7158;SDS011;63175;52.374;13.132;2023-04-05T08:21:59;4.80;;;3.67;;
7158;SDS011;63175;52.374;13.132;2023-04-05T08:24:25;4.57;;;3.10;;
7158;SDS011;63175;52.374;13.132;2023-04-05T08:26:52;4.90;;;3.90;;
7158;SDS011;63175;52.374;13.132;2023-04-05T08:29:20;3.37;;;3.07;;
7158;SDS011;63175;52.374;13.132;2023-04-05T08:31:47;4.53;;;3.50;;
7158;SDS011;63175;52.374;13.132;2023-04-05T08:34:13;5.10;;;3.27;;
7158;SDS011;63175;52.374;13.132;2023-04-05T08:36:40;2.73;;;2.53;;
7158;SDS011;63175;52.374;13.132;2023-04-05T08:39:09;3.03;;;2.53;;
7158;SDS011;63175;52.374;13.132;2023-04-05T08:41:36;4.20;;;2.47;;
7158;SDS011;63175;52.374;13.132;2023-04-05T08:44:10;2.53;;;2.33;;
7158;SDS011;63175;52.374;13.132;2023-04-05T08:46:37;4.03;;;2.30;;
7158;SDS011;63175;52.374;13.132;2023-04-05T08:49:04;2.90;;;2.13;;
7158;SDS011;63175;52.374;13.132;2023-04-05T08:51:32;4.10;;;2.50;;
7158;SDS011;63175;52.374;13.132;2023-04-05T08:54:03;3.13;;;2.10;;
7158;SDS011;63175;52.374;13.132;2023-04-05T08:56:32;4.93;;;2.10;;
7158;SDS011;63175;52.374;13.132;2023-04-05T08:59:01;5.13;;;2.53;;
7158;SDS011;63175;52.374;13.132;2023-04-05T09:01:29;3.70;;;3.03;;
7158;SDS011;63175;52.374;13.132;2023-04-05T09:03:58;2.53;;;2.23;;
7158;SDS011;63175;52.374;13.132;2023-04-05T09:06:27;3.30;;;2.67;;
7158;SDS011;63175;52.374;13.132;2023-04-05T09:08:54;3.10;;;2.10;;
7158;SDS011;63175;52.374;13.132;2023-04-05T09:11:22;3.40;;;2.50;;
7158;SDS011;63175;52.374;13.132;2023-04-05T09:13:51;3.53;;;1.87;;
7158;SDS011;63175;52.374;13.132;2023-04-05T09:16:18;4.23;;;2.50;;
7158;SDS011;63175;52.374;13.132;2023-04-05T09:18:45;5.23;;;2.83;;
7158;SDS011;63175;52.374;13.132;2023-04-05T09:21:13;5.43;;;2.77;;
7158;SDS011;63175;52.374;13.132;2023-04-05T09:23:49;6.87;;;2.97;;
7158;SDS011;63175;52.374;13.132;2023-04-05T09:26:18;5.80;;;2.87;;
7158;SDS011;63175;52.374;13.132;2023-04-05T09:28:46;3.60;;;2.60;;
7158;SDS011;63175;52.374;13.132;2023-04-05T09:31:30;6.87;;;2.77;;
7158;SDS011;63175;52.374;13.132;2023-04-05T09:33:58;3.40;;;2.40;;
7158;SDS011;63175;52.374;13.132;2023-04-05T09:36:28;2.80;;;2.50;;
7158;SDS011;63175;52.374;13.132;2023-04-05T09:39:06;3.67;;;2.17;;
7158;SDS011;63175;52.374;13.132;2023-04-05T09:41:35;4.00;;;2.30;;
7158;SDS011;63175;52.374;13.132;2023-04-05T09:44:03;3.50;;;2.50;;
7158;SDS011;63175;52.374;13.132;2023-04-05T09:46:32;2.63;;;1.83;;
7158;SDS011;63175;52.374;13.132;2023-04-05T09:49:01;2.07;;;1.87;;
7158;SDS011;63175;52.374;13.132;2023-04-05T09:51:31;3.63;;;3.20;;
7158;SDS011;63175;52.374;13.132;2023-04-05T09:54:00;2.87;;;2.60;;
7158;SDS011;63175;52.374;13.132;2023-04-05T09:56:28;2.83;;;2.47;;
7158;SDS011;63175;52.374;13.132;2023-04-05T09:59:00;3.20;;;2.70;;
7158;SDS011;63175;52.374;13.132;2023-04-05T10:01:32;5.90;;;3.20;;
7158;SDS011;63175;52.374;13.132;2023-04-05T10:03:59;2.63;;;2.43;;
7158;SDS011;63175;52.374;13.132;2023-04-05T10:06:36;2.97;;;2.30;;
7158;SDS011;63175;52.374;13.132;2023-04-05T10:09:03;3.67;;;2.87;;
7158;SDS011;63175;52.374;13.132;2023-04-05T10:11:31;4.00;;;2.70;;
7158;SDS011;63175;52.374;13.132;2023-04-05T10:13:59;4.23;;;2.83;;
7158;SDS011;63175;52.374;13.132;2023-04-05T10:16:28;2.40;;;2.20;;
7158;SDS011;63175;52.374;13.132;2023-04-05T10:18:59;3.27;;;2.87;;
7158;SDS011;63175;52.374;13.132;2023-04-05T10:21:27;2.97;;;2.73;;
7158;SDS011;63175;52.374;13.132;2023-04-05T10:23:59;6.97;;;2.47;;
7158;SDS011;63175;52.374;13.132;2023-04-05T10:26:35;3.73;;;2.83;;
7158;SDS011;63175;52.374;13.132;2023-04-05T10:29:08;2.87;;;2.57;;
7158;SDS011;63175;52.374;13.132;2023-04-05T10:31:41;2.93;;;2.50;;
7158;SDS011;63175;52.374;13.132;2023-04-05T10:34:22;5.53;;;2.67;;
7158;SDS011;63175;52.374;13.132;2023-04-05T10:36:57;3.93;;;2.07;;
7158;SDS011;63175;52.374;13.132;2023-04-05T10:39:26;2.57;;;2.13;;
7158;SDS011;63175;52.374;13.132;2023-04-05T10:41:58;6.00;;;2.13;;
7158;SDS011;63175;52.374;13.132;2023-04-05T10:44:27;2.37;;;2.17;;
7158;SDS011;63175;52.374;13.132;2023-04-05T10:46:57;2.50;;;2.17;;
7158;SDS011;63175;52.374;13.132;2023-04-05T10:49:31;2.20;;;1.70;;
7158;SDS011;63175;52.374;13.132;2023-04-05T10:52:05;3.23;;;1.87;;
7158;SDS011;63175;52.374;13.132;2023-04-05T10:54:32;2.63;;;1.80;;
7158;SDS011;63175;52.374;13.132;2023-04-05T10:57:02;4.87;;;3.57;;
7158;SDS011;63175;52.374;13.132;2023-04-05T10:59:30;2.33;;;2.13;;
7158;SDS011;63175;52.374;13.132;2023-04-05T11:01:58;3.20;;;2.33;;
7158;SDS011;63175;52.374;13.132;2023-04-05T11:04:25;2.73;;;1.77;;
7158;SDS011;63175;52.374;13.132;2023-04-05T11:07:12;2.30;;;2.03;;
7158;SDS011;63175;52.374;13.132;2023-04-05T11:09:49;4.83;;;2.70;;
7158;SDS011;63175;52.374;13.132;2023-04-05T11:12:17;1.90;;;1.67;;
7158;SDS011;63175;52.374;13.132;2023-04-05T11:14:44;3.07;;;2.70;;
7158;SDS011;63175;52.374;13.132;2023-04-05T11:17:24;2.30;;;1.90;;
7158;SDS011;63175;52.374;13.132;2023-04-05T11:19:52;3.17;;;2.17;;
7158;SDS011;63175;52.374;13.132;2023-04-05T11:22:29;2.83;;;2.30;;
7158;SDS011;63175;52.374;13.132;2023-04-05T11:24:56;2.23;;;2.10;;
7158;SDS011;63175;52.374;13.132;2023-04-05T11:27:27;2.83;;;2.33;;
7158;SDS011;63175;52.374;13.132;2023-04-05T11:29:55;2.57;;;2.37;;
7158;SDS011;63175;52.374;13.132;2023-04-05T11:32:26;3.30;;;2.50;;
7158;SDS011;63175;52.374;13.132;2023-04-05T11:35:04;2.20;;;2.00;;
7158;SDS011;63175;52.374;13.132;2023-04-05T11:40:23;4.10;;;2.60;;
7158;SDS011;63175;52.374;13.132;2023-04-05T11:42:58;4.57;;;2.13;;
7158;SDS011;63175;52.374;13.132;2023-04-05T11:45:30;6.40;;;2.10;;
7158;SDS011;63175;52.374;13.132;2023-04-05T11:47:58;3.70;;;2.17;;
7158;SDS011;63175;52.374;13.132;2023-04-05T11:50:26;3.53;;;2.57;;
7158;SDS011;63175;52.374;13.132;2023-04-05T11:53:07;2.30;;;1.80;;
7158;SDS011;63175;52.374;13.132;2023-04-05T11:55:35;5.03;;;2.00;;
7158;SDS011;63175;52.374;13.132;2023-04-05T11:58:02;1.50;;;1.40;;
7158;SDS011;63175;52.374;13.132;2023-04-05T12:00:36;1.43;;;1.30;;
7158;SDS011;63175;52.374;13.132;2023-04-05T12:03:03;1.70;;;1.40;;
7158;SDS011;63175;52.374;13.132;2023-04-05T12:05:43;3.43;;;1.53;;
7158;SDS011;63175;52.374;13.132;2023-04-05T12:08:12;2.80;;;1.30;;
7158;SDS011;63175;52.374;13.132;2023-04-05T12:10:39;2.57;;;1.30;;
7158;SDS011;63175;52.374;13.132;2023-04-05T12:13:05;2.13;;;1.60;;
7158;SDS011;63175;52.374;13.132;2023-04-05T12:15:35;2.50;;;1.93;;
7158;SDS011;63175;52.374;13.132;2023-04-05T12:18:04;1.60;;;1.50;;
7158;SDS011;63175;52.374;13.132;2023-04-05T12:20:38;2.97;;;2.67;;
7158;SDS011;63175;52.374;13.132;2023-04-05T12:23:05;2.00;;;1.90;;
7158;SDS011;63175;52.374;13.132;2023-04-05T12:25:34;2.83;;;2.13;;
7158;SDS011;63175;52.374;13.132;2023-04-05T12:28:03;2.67;;;2.30;;
7158;SDS011;63175;52.374;13.132;2023-04-05T12:30:31;3.67;;;2.17;;
7158;SDS011;63175;52.374;13.132;2023-04-05T12:33:05;1.70;;;1.60;;
7158;SDS011;63175;52.374;13.132;2023-04-05T12:35:33;1.50;;;1.40;;
7158;SDS011;63175;52.374;13.132;2023-04-05T12:38:00;2.00;;;1.60;;
7158;SDS011;63175;52.374;13.132;2023-04-05T12:40:29;1.63;;;1.53;;
7158;SDS011;63175;52.374;13.132;2023-04-05T12:43:01;1.57;;;1.47;;
7158;SDS011;63175;52.374;13.132;2023-04-05T12:45:29;1.43;;;1.20;;
7158;SDS011;63175;52.374;13.132;2023-04-05T12:48:03;2.13;;;1.97;;
7158;SDS011;63175;52.374;13.132;2023-04-05T12:50:33;2.13;;;1.80;;
7158;SDS011;63175;52.374;13.132;2023-04-05T12:53:04;3.43;;;2.40;;
7158;SDS011;63175;52.374;13.132;2023-04-05T12:55:31;1.70;;;1.60;;
7158;SDS011;63175;52.374;13.132;2023-04-05T12:58:05;1.60;;;1.50;;
7158;SDS011;63175;52.374;13.132;2023-04-05T13:00:32;2.27;;;2.00;;
7158;SDS011;63175;52.374;13.132;2023-04-05T13:02:59;2.37;;;2.17;;
7158;SDS011;63175;52.374;13.132;2023-04-05T13:05:26;2.60;;;1.60;;
7158;SDS011;63175;52.374;13.132;2023-04-05T13:07:53;2.00;;;1.87;;
7158;SDS011;63175;52.374;13.132;2023-04-05T13:10:21;2.57;;;2.37;;
7158;SDS011;63175;52.374;13.132;2023-04-05T13:12:50;2.17;;;2.00;;
7158;SDS011;63175;52.374;13.132;2023-04-05T13:15:18;2.70;;;1.90;;
7158;SDS011;63175;52.374;13.132;2023-04-05T13:17:45;1.80;;;1.67;;
7158;SDS011;63175;52.374;13.132;2023-04-05T13:20:13;2.27;;;1.30;;
7158;SDS011;63175;52.374;13.132;2023-04-05T13:22:41;1.60;;;1.50;;
7158;SDS011;63175;52.374;13.132;2023-04-05T13:25:08;1.70;;;1.60;;
7158;SDS011;63175;52.374;13.132;2023-04-05T13:27:35;1.50;;;1.40;;
7158;SDS011;63175;52.374;13.132;2023-04-05T13:30:02;2.43;;;1.70;;
7158;SDS011;63175;52.374;13.132;2023-04-05T13:32:31;3.47;;;2.43;;
7158;SDS011;63175;52.374;13.132;2023-04-05T13:34:58;1.97;;;1.57;;
7158;SDS011;63175;52.374;13.132;2023-04-05T13:37:24;2.53;;;2.33;;
7158;SDS011;63175;52.374;13.132;2023-04-05T13:39:51;2.03;;;1.93;;
7158;SDS011;63175;52.374;13.132;2023-04-05T13:42:18;3.23;;;2.10;;
7158;SDS011;63175;52.374;13.132;2023-04-05T13:44:45;2.23;;;1.50;;
7158;SDS011;63175;52.374;13.132;2023-04-05T13:47:12;1.97;;;1.80;;
7158;SDS011;63175;52.374;13.132;2023-04-05T13:49:41;1.60;;;1.50;;
7158;SDS011;63175;52.374;13.132;2023-04-05T13:52:08;1.53;;;1.30;;
7158;SDS011;63175;52.374;13.132;2023-04-05T13:54:35;1.93;;;1.83;;
7158;SDS011;63175;52.374;13.132;2023-04-05T13:57:02;2.03;;;1.93;;
7158;SDS011;63175;52.374;13.132;2023-04-05T13:59:29;2.60;;;2.00;;
7158;SDS011;63175;52.374;13.132;2023-04-05T14:01:56;1.67;;;1.57;;
7158;SDS011;63175;52.374;13.132;2023-04-05T14:04:23;1.80;;;1.47;;
7158;SDS011;63175;52.374;13.132;2023-04-05T14:06:51;1.60;;;1.50;;
7158;SDS011;63175;52.374;13.132;2023-04-05T14:09:18;1.40;;;1.30;;
7158;SDS011;63175;52.374;13.132;2023-04-05T14:11:45;2.30;;;1.40;;
7158;SDS011;63175;52.374;13.132;2023-04-05T14:14:12;1.70;;;1.60;;
7158;SDS011;63175;52.374;13.132;2023-04-05T14:16:39;1.83;;;1.30;;
7158;SDS011;63175;52.374;13.132;2023-04-05T14:19:05;3.13;;;1.47;;
7158;SDS011;63175;52.374;13.132;2023-04-05T14:21:32;1.40;;;1.30;;
7158;SDS011;63175;52.374;13.132;2023-04-05T14:24:02;1.73;;;1.63;;
7158;SDS011;63175;52.374;13.132;2023-04-05T14:26:29;3.23;;;2.03;;
7158;SDS011;63175;52.374;13.132;2023-04-05T14:28:56;2.07;;;1.87;;
7158;SDS011;63175;52.374;13.132;2023-04-05T14:31:23;1.50;;;1.40;;
7158;SDS011;63175;52.374;13.132;2023-04-05T14:33:50;1.83;;;1.73;;
7158;SDS011;63175;52.374;13.132;2023-04-05T14:36:17;2.40;;;2.10;;
7158;SDS011;63175;52.374;13.132;2023-04-05T14:38:44;2.83;;;1.67;;
7158;SDS011;63175;52.374;13.132;2023-04-05T14:41:13;2.80;;;1.53;;
7158;SDS011;63175;52.374;13.132;2023-04-05T14:43:40;1.60;;;1.50;;
7158;SDS011;63175;52.374;13.132;2023-04-05T14:46:07;2.27;;;2.00;;
7158;SDS011;63175;52.374;13.132;2023-04-05T14:48:34;1.90;;;1.60;;
7158;SDS011;63175;52.374;13.132;2023-04-05T14:51:01;3.60;;;2.47;;
7158;SDS011;63175;52.374;13.132;2023-04-05T14:53:29;2.60;;;1.90;;
7158;SDS011;63175;52.374;13.132;2023-04-05T14:55:56;2.10;;;1.90;;
7158;SDS011;63175;52.374;13.132;2023-04-05T14:58:25;3.47;;;2.10;;
7158;SDS011;63175;52.374;13.132;2023-04-05T15:00:53;4.97;;;2.20;;
7158;SDS011;63175;52.374;13.132;2023-04-05T15:03:20;2.37;;;2.17;;